sensor_id;sensor_type;location;lat;lon;timestamp;temperature;humidity
32139;DHT22;18644;48.700;9.210;2023-12-20T00:01:16;9.20;66.50
32139;DHT22;18644;48.700;9.210;2023-12-20T00:03:44;9.30;66.50
32139;DHT22;18644;48.700;9.210;2023-12-20T00:06:11;9.30;66.50
32139;DHT22;18644;48.700;9.210;2023-12-20T00:08:38;9.30;66.50
32139;DHT22;18644;48.700;9.210;2023-12-20T00:11:05;9.30;66.50
32139;DHT22;18644;48.700;9.210;2023-12-20T00:13:32;9.40;66.50
32139;DHT22;18644;48.700;9.210;2023-12-20T00:15:59;9.40;66.50
32139;DHT22;18644;48.700;9.210;2023-12-20T00:18:26;9.40;66.50
32139;DHT22;18644;48.700;9.210;2023-12-20T00:20:54;9.40;66.40
32139;DHT22;18644;48.700;9.210;2023-12-20T00:23:21;9.50;66.50
32139;DHT22;18644;48.700;9.210;2023-12-20T00:25:48;9.50;66.50
32139;DHT22;18644;48.700;9.210;2023-12-20T00:28:15;9.50;66.40
32139;DHT22;18644;48.700;9.210;2023-12-20T00:30:42;9.50;66.40
32139;DHT22;18644;48.700;9.210;2023-12-20T00:33:09;9.60;66.40
32139;DHT22;18644;48.700;9.210;2023-12-20T00:35:36;9.60;66.40
32139;DHT22;18644;48.700;9.210;2023-12-20T00:38:04;9.60;66.30
32139;DHT22;18644;48.700;9.210;2023-12-20T00:40:32;9.60;66.30
32139;DHT22;18644;48.700;9.210;2023-12-20T00:42:59;9.60;66.30
32139;DHT22;18644;48.700;9.210;2023-12-20T00:45:26;9.60;66.30
32139;DHT22;18644;48.700;9.210;2023-12-20T00:47:53;9.60;67.10
32139;DHT22;18644;48.700;9.210;2023-12-20T00:50:20;9.60;66.30
32139;DHT22;18644;48.700;9.210;2023-12-20T00:52:47;9.60;66.30
32139;DHT22;18644;48.700;9.210;2023-12-20T00:55:15;9.60;66.30
32139;DHT22;18644;48.700;9.210;2023-12-20T00:57:42;9.60;66.30
32139;DHT22;18644;48.700;9.210;2023-12-20T01:00:10;9.60;66.40
32139;DHT22;18644;48.700;9.210;2023-12-20T01:02:38;9.60;66.40
32139;DHT22;18644;48.700;9.210;2023-12-20T01:05:06;9.60;66.60
32139;DHT22;18644;48.700;9.210;2023-12-20T01:07:34;9.60;66.50
32139;DHT22;18644;48.700;9.210;2023-12-20T01:10:01;9.60;66.60
32139;DHT22;18644;48.700;9.210;2023-12-20T01:12:30;9.60;66.60
32139;DHT22;18644;48.700;9.210;2023-12-20T01:14:56;9.50;66.70
32139;DHT22;18644;48.700;9.210;2023-12-20T01:17:24;9.60;66.70
32139;DHT22;18644;48.700;9.210;2023-12-20T01:19:50;9.60;66.80
32139;DHT22;18644;48.700;9.210;2023-12-20T01:22:17;9.50;66.80
32139;DHT22;18644;48.700;9.210;2023-12-20T01:24:44;9.50;66.90
32139;DHT22;18644;48.700;9.210;2023-12-20T01:27:11;9.50;66.90
32139;DHT22;18644;48.700;9.210;2023-12-20T01:29:39;9.50;67.00
32139;DHT22;18644;48.700;9.210;2023-12-20T01:32:06;9.50;67.10
32139;DHT22;18644;48.700;9.210;2023-12-20T01:34:33;9.50;67.90
32139;DHT22;18644;48.700;9.210;2023-12-20T01:37:01;9.40;67.20
32139;DHT22;18644;48.700;9.210;2023-12-20T01:39:29;9.40;67.40
32139;DHT22;18644;48.700;9.210;2023-12-20T01:41:56;9.40;67.40
32139;DHT22;18644;48.700;9.210;2023-12-20T01:44:23;9.40;67.50
32139;DHT22;18644;48.700;9.210;2023-12-20T01:46:51;9.40;67.60
32139;DHT22;18644;48.700;9.210;2023-12-20T01:49:18;9.40;67.70
32139;DHT22;18644;48.700;9.210;2023-12-20T01:51:46;9.40;67.80
32139;DHT22;18644;48.700;9.210;2023-12-20T01:54:13;9.30;67.80
32139;DHT22;18644;48.700;9.210;2023-12-20T01:56:40;9.30;67.90
32139;DHT22;18644;48.700;9.210;2023-12-20T01:59:08;9.30;67.90
32139;DHT22;18644;48.700;9.210;2023-12-20T02:01:35;9.30;68.00
32139;DHT22;18644;48.700;9.210;2023-12-20T02:04:05;9.30;68.10
32139;DHT22;18644;48.700;9.210;2023-12-20T02:06:34;9.30;68.20
32139;DHT22;18644;48.700;9.210;2023-12-20T02:09:01;9.30;68.30
32139;DHT22;18644;48.700;9.210;2023-12-20T02:11:29;9.20;68.20
32139;DHT22;18644;48.700;9.210;2023-12-20T02:13:56;9.30;68.30
32139;DHT22;18644;48.700;9.210;2023-12-20T02:16:23;9.30;68.30
32139;DHT22;18644;48.700;9.210;2023-12-20T02:21:33;9.30;68.60
32139;DHT22;18644;48.700;9.210;2023-12-20T02:24:01;9.20;68.50
32139;DHT22;18644;48.700;9.210;2023-12-20T02:26:27;9.30;68.60
32139;DHT22;18644;48.700;9.210;2023-12-20T02:28:55;9.30;68.50
32139;DHT22;18644;48.700;9.210;2023-12-20T02:31:23;9.20;68.50
32139;DHT22;18644;48.700;9.210;2023-12-20T02:33:50;9.20;68.50
32139;DHT22;18644;48.700;9.210;2023-12-20T02:36:17;9.20;68.50
32139;DHT22;18644;48.700;9.210;2023-12-20T02:38:45;9.20;68.50
32139;DHT22;18644;48.700;9.210;2023-12-20T02:43:48;9.20;68.60
32139;DHT22;18644;48.700;9.210;2023-12-20T02:46:15;9.20;68.70
32139;DHT22;18644;48.700;9.210;2023-12-20T02:48:43;9.20;68.70
32139;DHT22;18644;48.700;9.210;2023-12-20T02:51:10;9.20;68.60
32139;DHT22;18644;48.700;9.210;2023-12-20T02:53:36;9.20;68.70
32139;DHT22;18644;48.700;9.210;2023-12-20T02:56:05;9.20;68.80
32139;DHT22;18644;48.700;9.210;2023-12-20T02:58:32;9.20;68.80
32139;DHT22;18644;48.700;9.210;2023-12-20T03:00:59;9.20;68.90
32139;DHT22;18644;48.700;9.210;2023-12-20T03:03:26;9.20;68.90
32139;DHT22;18644;48.700;9.210;2023-12-20T03:05:53;9.20;68.80
32139;DHT22;18644;48.700;9.210;2023-12-20T03:08:20;9.20;68.80
32139;DHT22;18644;48.700;9.210;2023-12-20T03:10:46;9.20;68.90
32139;DHT22;18644;48.700;9.210;2023-12-20T03:13:15;9.20;68.90
32139;DHT22;18644;48.700;9.210;2023-12-20T03:15:42;9.20;68.90
32139;DHT22;18644;48.700;9.210;2023-12-20T03:18:09;9.20;69.00
32139;DHT22;18644;48.700;9.210;2023-12-20T03:20:36;9.20;69.00
32139;DHT22;18644;48.700;9.210;2023-12-20T03:23:03;9.20;69.00
32139;DHT22;18644;48.700;9.210;2023-12-20T03:25:30;9.20;69.10
32139;DHT22;18644;48.700;9.210;2023-12-20T03:27:57;9.20;69.00
32139;DHT22;18644;48.700;9.210;2023-12-20T03:30:25;9.20;69.10
32139;DHT22;18644;48.700;9.210;2023-12-20T03:32:52;9.20;69.00
32139;DHT22;18644;48.700;9.210;2023-12-20T03:35:19;9.20;69.00
32139;DHT22;18644;48.700;9.210;2023-12-20T03:37:46;9.20;69.10
32139;DHT22;18644;48.700;9.210;2023-12-20T03:40:12;9.20;69.10
32139;DHT22;18644;48.700;9.210;2023-12-20T03:42:39;9.20;69.10
32139;DHT22;18644;48.700;9.210;2023-12-20T03:45:07;9.20;69.10
32139;DHT22;18644;48.700;9.210;2023-12-20T03:47:36;9.20;69.10
32139;DHT22;18644;48.700;9.210;2023-12-20T03:50:04;9.20;69.10
32139;DHT22;18644;48.700;9.210;2023-12-20T03:52:31;9.20;69.00
32139;DHT22;18644;48.700;9.210;2023-12-20T03:54:58;9.20;69.00
32139;DHT22;18644;48.700;9.210;2023-12-20T03:57:25;9.20;69.00
32139;DHT22;18644;48.700;9.210;2023-12-20T03:59:52;9.20;69.10
32139;DHT22;18644;48.700;9.210;2023-12-20T04:02:19;9.20;69.00
32139;DHT22;18644;48.700;9.210;2023-12-20T04:04:47;9.20;69.00
32139;DHT22;18644;48.700;9.210;2023-12-20T04:07:14;9.20;69.00
32139;DHT22;18644;48.700;9.210;2023-12-20T04:09:41;9.20;69.10
32139;DHT22;18644;48.700;9.210;2023-12-20T04:12:08;9.20;69.00
32139;DHT22;18644;48.700;9.210;2023-12-20T04:14:35;9.20;69.00
32139;DHT22;18644;48.700;9.210;2023-12-20T04:17:02;9.20;69.00
32139;DHT22;18644;48.700;9.210;2023-12-20T04:19:29;9.20;68.90
32139;DHT22;18644;48.700;9.210;2023-12-20T04:21:57;9.20;68.90
32139;DHT22;18644;48.700;9.210;2023-12-20T04:24:24;9.20;68.90
32139;DHT22;18644;48.700;9.210;2023-12-20T04:26:51;9.20;68.90
32139;DHT22;18644;48.700;9.210;2023-12-20T04:29:17;9.10;68.90
32139;DHT22;18644;48.700;9.210;2023-12-20T04:31:44;9.10;68.80
32139;DHT22;18644;48.700;9.210;2023-12-20T04:34:11;9.20;68.90
32139;DHT22;18644;48.700;9.210;2023-12-20T04:36:38;9.10;68.80
32139;DHT22;18644;48.700;9.210;2023-12-20T04:39:06;9.20;68.80
32139;DHT22;18644;48.700;9.210;2023-12-20T04:41:33;9.10;68.80
32139;DHT22;18644;48.700;9.210;2023-12-20T04:44:00;9.10;68.80
32139;DHT22;18644;48.700;9.210;2023-12-20T04:46:27;9.10;68.90
32139;DHT22;18644;48.700;9.210;2023-12-20T04:48:54;9.10;68.90
32139;DHT22;18644;48.700;9.210;2023-12-20T04:51:21;9.10;68.80
32139;DHT22;18644;48.700;9.210;2023-12-20T04:53:48;9.10;68.80
32139;DHT22;18644;48.700;9.210;2023-12-20T04:56:16;9.10;68.70
32139;DHT22;18644;48.700;9.210;2023-12-20T04:58:43;9.10;68.70
32139;DHT22;18644;48.700;9.210;2023-12-20T05:01:10;9.10;68.70
32139;DHT22;18644;48.700;9.210;2023-12-20T05:03:37;9.10;68.70
32139;DHT22;18644;48.700;9.210;2023-12-20T05:06:04;9.10;68.70
32139;DHT22;18644;48.700;9.210;2023-12-20T05:08:31;9.10;68.70
32139;DHT22;18644;48.700;9.210;2023-12-20T05:10:57;9.00;68.60
32139;DHT22;18644;48.700;9.210;2023-12-20T05:13:26;9.00;68.60
32139;DHT22;18644;48.700;9.210;2023-12-20T05:15:53;9.00;68.60
32139;DHT22;18644;48.700;9.210;2023-12-20T05:18:20;9.00;68.60
32139;DHT22;18644;48.700;9.210;2023-12-20T05:20:48;9.00;68.70
32139;DHT22;18644;48.700;9.210;2023-12-20T05:23:15;9.00;68.70
32139;DHT22;18644;48.700;9.210;2023-12-20T05:25:43;9.00;68.70
32139;DHT22;18644;48.700;9.210;2023-12-20T05:28:10;9.00;68.70
32139;DHT22;18644;48.700;9.210;2023-12-20T05:30:39;8.90;68.60
32139;DHT22;18644;48.700;9.210;2023-12-20T05:33:06;8.90;68.70
32139;DHT22;18644;48.700;9.210;2023-12-20T05:35:33;8.90;68.70
32139;DHT22;18644;48.700;9.210;2023-12-20T05:37:59;8.90;68.70
32139;DHT22;18644;48.700;9.210;2023-12-20T05:40:26;8.90;68.80
32139;DHT22;18644;48.700;9.210;2023-12-20T05:42:53;8.90;68.80
32139;DHT22;18644;48.700;9.210;2023-12-20T05:45:20;8.90;68.80
32139;DHT22;18644;48.700;9.210;2023-12-20T05:47:48;8.80;68.80
32139;DHT22;18644;48.700;9.210;2023-12-20T05:50:15;8.90;68.80
32139;DHT22;18644;48.700;9.210;2023-12-20T05:52:41;8.90;68.90
32139;DHT22;18644;48.700;9.210;2023-12-20T05:55:08;8.80;68.90
32139;DHT22;18644;48.700;9.210;2023-12-20T05:57:35;8.80;68.90
32139;DHT22;18644;48.700;9.210;2023-12-20T06:00:02;8.80;68.90
32139;DHT22;18644;48.700;9.210;2023-12-20T06:02:30;8.80;69.00
32139;DHT22;18644;48.700;9.210;2023-12-20T06:04:58;8.80;69.00
32139;DHT22;18644;48.700;9.210;2023-12-20T06:07:25;8.80;69.00
32139;DHT22;18644;48.700;9.210;2023-12-20T06:09:52;8.80;69.00
32139;DHT22;18644;48.700;9.210;2023-12-20T06:12:18;8.80;69.00
32139;DHT22;18644;48.700;9.210;2023-12-20T06:14:45;8.80;69.10
32139;DHT22;18644;48.700;9.210;2023-12-20T06:17:12;8.80;69.10
32139;DHT22;18644;48.700;9.210;2023-12-20T06:19:39;8.80;69.10
32139;DHT22;18644;48.700;9.210;2023-12-20T06:22:09;8.80;69.20
32139;DHT22;18644;48.700;9.210;2023-12-20T06:24:36;8.80;69.30
32139;DHT22;18644;48.700;9.210;2023-12-20T06:27:03;8.80;69.40
32139;DHT22;18644;48.700;9.210;2023-12-20T06:29:30;8.70;69.40
32139;DHT22;18644;48.700;9.210;2023-12-20T06:31:57;8.80;69.40
32139;DHT22;18644;48.700;9.210;2023-12-20T06:34:24;8.80;69.40
32139;DHT22;18644;48.700;9.210;2023-12-20T06:36:51;8.80;69.40
32139;DHT22;18644;48.700;9.210;2023-12-20T06:39:19;8.80;69.40
32139;DHT22;18644;48.700;9.210;2023-12-20T06:41:46;8.80;69.40
32139;DHT22;18644;48.700;9.210;2023-12-20T06:44:13;8.80;69.40
32139;DHT22;18644;48.700;9.210;2023-12-20T06:46:39;8.80;69.40
32139;DHT22;18644;48.700;9.210;2023-12-20T06:49:06;8.80;69.50
32139;DHT22;18644;48.700;9.210;2023-12-20T06:51:33;8.80;69.50
32139;DHT22;18644;48.700;9.210;2023-12-20T06:54:00;8.80;69.50
32139;DHT22;18644;48.700;9.210;2023-12-20T06:56:29;8.80;69.60
32139;DHT22;18644;48.700;9.210;2023-12-20T06:58:56;8.80;69.60
32139;DHT22;18644;48.700;9.210;2023-12-20T07:01:23;8.80;69.60
32139;DHT22;18644;48.700;9.210;2023-12-20T07:03:49;8.80;69.60
32139;DHT22;18644;48.700;9.210;2023-12-20T07:06:16;8.80;69.60
32139;DHT22;18644;48.700;9.210;2023-12-20T07:08:43;8.80;69.70
32139;DHT22;18644;48.700;9.210;2023-12-20T07:11:10;8.80;69.70
32139;DHT22;18644;48.700;9.210;2023-12-20T07:13:38;8.80;69.70
32139;DHT22;18644;48.700;9.210;2023-12-20T07:16:05;8.80;69.60
32139;DHT22;18644;48.700;9.210;2023-12-20T07:18:33;8.90;69.70
32139;DHT22;18644;48.700;9.210;2023-12-20T07:20:59;8.90;69.70
32139;DHT22;18644;48.700;9.210;2023-12-20T07:23:26;8.90;69.70
32139;DHT22;18644;48.700;9.210;2023-12-20T07:25:53;8.90;69.80
32139;DHT22;18644;48.700;9.210;2023-12-20T07:28:20;8.90;69.80
32139;DHT22;18644;48.700;9.210;2023-12-20T07:30:48;8.90;69.80
32139;DHT22;18644;48.700;9.210;2023-12-20T07:33:15;8.90;69.70
32139;DHT22;18644;48.700;9.210;2023-12-20T07:35:42;8.90;69.70
32139;DHT22;18644;48.700;9.210;2023-12-20T07:38:10;8.90;69.70
32139;DHT22;18644;48.700;9.210;2023-12-20T07:40:38;8.90;69.70
32139;DHT22;18644;48.700;9.210;2023-12-20T07:43:05;8.90;69.60
32139;DHT22;18644;48.700;9.210;2023-12-20T07:45:32;8.90;69.60
32139;DHT22;18644;48.700;9.210;2023-12-20T07:48:00;8.90;69.60
32139;DHT22;18644;48.700;9.210;2023-12-20T07:50:27;8.90;69.70
32139;DHT22;18644;48.700;9.210;2023-12-20T07:52:54;8.90;69.70
32139;DHT22;18644;48.700;9.210;2023-12-20T07:55:21;8.90;69.80
32139;DHT22;18644;48.700;9.210;2023-12-20T07:57:48;8.90;69.80
32139;DHT22;18644;48.700;9.210;2023-12-20T08:00:15;8.90;69.70
32139;DHT22;18644;48.700;9.210;2023-12-20T08:02:43;8.90;69.80
32139;DHT22;18644;48.700;9.210;2023-12-20T08:05:12;8.90;69.70
32139;DHT22;18644;48.700;9.210;2023-12-20T08:07:39;8.90;69.60
32139;DHT22;18644;48.700;9.210;2023-12-20T08:10:06;8.90;69.50
32139;DHT22;18644;48.700;9.210;2023-12-20T08:12:34;8.90;69.30
32139;DHT22;18644;48.700;9.210;2023-12-20T08:15:01;8.90;69.20
32139;DHT22;18644;48.700;9.210;2023-12-20T08:17:29;8.90;69.20
32139;DHT22;18644;48.700;9.210;2023-12-20T08:19:56;8.90;69.20
32139;DHT22;18644;48.700;9.210;2023-12-20T08:22:24;8.90;69.10
32139;DHT22;18644;48.700;9.210;2023-12-20T08:24:51;8.90;69.10
32139;DHT22;18644;48.700;9.210;2023-12-20T08:27:18;8.80;69.00
32139;DHT22;18644;48.700;9.210;2023-12-20T08:29:44;8.90;69.00
32139;DHT22;18644;48.700;9.210;2023-12-20T08:32:11;8.80;69.00
32139;DHT22;18644;48.700;9.210;2023-12-20T08:34:38;8.80;68.90
32139;DHT22;18644;48.700;9.210;2023-12-20T08:37:05;8.80;68.90
32139;DHT22;18644;48.700;9.210;2023-12-20T08:39:33;8.80;69.00
32139;DHT22;18644;48.700;9.210;2023-12-20T08:42:00;8.80;69.00
32139;DHT22;18644;48.700;9.210;2023-12-20T08:44:27;8.80;69.10
32139;DHT22;18644;48.700;9.210;2023-12-20T08:46:54;8.80;69.00
32139;DHT22;18644;48.700;9.210;2023-12-20T08:49:22;8.80;69.10
32139;DHT22;18644;48.700;9.210;2023-12-20T08:51:49;8.80;69.00
32139;DHT22;18644;48.700;9.210;2023-12-20T08:54:16;8.80;69.00
32139;DHT22;18644;48.700;9.210;2023-12-20T08:56:45;8.70;68.90
32139;DHT22;18644;48.700;9.210;2023-12-20T08:59:12;8.70;68.90
32139;DHT22;18644;48.700;9.210;2023-12-20T09:01:39;8.70;69.00
32139;DHT22;18644;48.700;9.210;2023-12-20T09:04:07;8.70;69.00
32139;DHT22;18644;48.700;9.210;2023-12-20T09:06:33;8.70;68.90
32139;DHT22;18644;48.700;9.210;2023-12-20T09:09:00;8.70;68.80
32139;DHT22;18644;48.700;9.210;2023-12-20T09:11:27;8.70;68.70
32139;DHT22;18644;48.700;9.210;2023-12-20T09:13:56;8.70;68.70
32139;DHT22;18644;48.700;9.210;2023-12-20T09:16:23;8.60;68.50
32139;DHT22;18644;48.700;9.210;2023-12-20T09:18:49;8.60;68.50
32139;DHT22;18644;48.700;9.210;2023-12-20T09:21:17;8.60;68.30
32139;DHT22;18644;48.700;9.210;2023-12-20T09:23:44;8.60;68.10
32139;DHT22;18644;48.700;9.210;2023-12-20T09:26:11;8.60;68.00
32139;DHT22;18644;48.700;9.210;2023-12-20T09:28:37;8.60;67.80
32139;DHT22;18644;48.700;9.210;2023-12-20T09:31:07;8.50;67.60
32139;DHT22;18644;48.700;9.210;2023-12-20T09:33:34;8.50;67.70
32139;DHT22;18644;48.700;9.210;2023-12-20T09:36:01;8.50;67.80
32139;DHT22;18644;48.700;9.210;2023-12-20T09:38:28;8.50;67.80
32139;DHT22;18644;48.700;9.210;2023-12-20T09:40:55;8.50;67.80
32139;DHT22;18644;48.700;9.210;2023-12-20T09:43:24;8.50;67.70
32139;DHT22;18644;48.700;9.210;2023-12-20T09:45:54;8.50;67.70
32139;DHT22;18644;48.700;9.210;2023-12-20T09:48:29;8.60;67.80
32139;DHT22;18644;48.700;9.210;2023-12-20T09:50:56;8.60;67.50
32139;DHT22;18644;48.700;9.210;2023-12-20T09:53:25;8.60;67.50
32139;DHT22;18644;48.700;9.210;2023-12-20T09:55:56;8.60;67.80
32139;DHT22;18644;48.700;9.210;2023-12-20T09:58:25;8.70;68.10
32139;DHT22;18644;48.700;9.210;2023-12-20T10:00:53;8.80;68.30
32139;DHT22;18644;48.700;9.210;2023-12-20T10:03:24;8.90;68.50
32139;DHT22;18644;48.700;9.210;2023-12-20T10:05:55;9.10;68.70
32139;DHT22;18644;48.700;9.210;2023-12-20T10:08:24;9.20;68.50
32139;DHT22;18644;48.700;9.210;2023-12-20T10:10:51;9.30;68.20
32139;DHT22;18644;48.700;9.210;2023-12-20T10:13:18;9.40;67.70
32139;DHT22;18644;48.700;9.210;2023-12-20T10:15:45;9.60;67.30
32139;DHT22;18644;48.700;9.210;2023-12-20T10:18:12;9.60;66.90
32139;DHT22;18644;48.700;9.210;2023-12-20T10:20:40;9.70;66.50
32139;DHT22;18644;48.700;9.210;2023-12-20T10:23:09;9.80;66.20
32139;DHT22;18644;48.700;9.210;2023-12-20T10:25:36;9.80;65.80
32139;DHT22;18644;48.700;9.210;2023-12-20T10:28:10;9.90;65.50
32139;DHT22;18644;48.700;9.210;2023-12-20T10:30:38;10.00;65.20
32139;DHT22;18644;48.700;9.210;2023-12-20T10:33:06;10.10;65.20
32139;DHT22;18644;48.700;9.210;2023-12-20T10:35:33;10.10;65.20
32139;DHT22;18644;48.700;9.210;2023-12-20T10:38:03;10.20;65.60
32139;DHT22;18644;48.700;9.210;2023-12-20T10:40:34;10.30;65.40
32139;DHT22;18644;48.700;9.210;2023-12-20T10:43:03;10.50;65.00
32139;DHT22;18644;48.700;9.210;2023-12-20T10:45:30;10.50;64.30
32139;DHT22;18644;48.700;9.210;2023-12-20T10:47:58;10.60;63.80
32139;DHT22;18644;48.700;9.210;2023-12-20T10:50:26;10.60;63.20
32139;DHT22;18644;48.700;9.210;2023-12-20T10:52:55;10.60;62.50
32139;DHT22;18644;48.700;9.210;2023-12-20T10:55:22;10.60;62.40
32139;DHT22;18644;48.700;9.210;2023-12-20T10:57:51;10.50;62.20
32139;DHT22;18644;48.700;9.210;2023-12-20T11:00:19;10.50;61.70
32139;DHT22;18644;48.700;9.210;2023-12-20T11:02:49;10.40;61.70
32139;DHT22;18644;48.700;9.210;2023-12-20T11:05:25;10.40;62.20
32139;DHT22;18644;48.700;9.210;2023-12-20T11:07:59;10.30;61.50
32139;DHT22;18644;48.700;9.210;2023-12-20T11:10:31;10.30;61.50
32139;DHT22;18644;48.700;9.210;2023-12-20T11:13:08;10.20;61.30
32139;DHT22;18644;48.700;9.210;2023-12-20T11:15:39;10.20;61.20
32139;DHT22;18644;48.700;9.210;2023-12-20T11:18:07;10.10;61.30
32139;DHT22;18644;48.700;9.210;2023-12-20T11:20:38;10.10;61.40
32139;DHT22;18644;48.700;9.210;2023-12-20T11:23:06;10.10;61.20
32139;DHT22;18644;48.700;9.210;2023-12-20T11:25:52;10.10;61.10
32139;DHT22;18644;48.700;9.210;2023-12-20T11:28:23;10.00;61.10
32139;DHT22;18644;48.700;9.210;2023-12-20T11:30:51;10.00;61.30
32139;DHT22;18644;48.700;9.210;2023-12-20T11:33:22;10.00;61.20
32139;DHT22;18644;48.700;9.210;2023-12-20T11:35:50;10.00;60.80
32139;DHT22;18644;48.700;9.210;2023-12-20T11:38:19;10.00;61.00
32139;DHT22;18644;48.700;9.210;2023-12-20T11:40:48;9.90;61.00
32139;DHT22;18644;48.700;9.210;2023-12-20T11:43:30;9.90;60.90
32139;DHT22;18644;48.700;9.210;2023-12-20T11:46:03;9.90;60.60
32139;DHT22;18644;48.700;9.210;2023-12-20T11:48:31;9.90;60.80
32139;DHT22;18644;48.700;9.210;2023-12-20T11:50:58;9.90;60.80
32139;DHT22;18644;48.700;9.210;2023-12-20T11:53:25;9.90;60.50
32139;DHT22;18644;48.700;9.210;2023-12-20T11:55:54;9.80;60.30
32139;DHT22;18644;48.700;9.210;2023-12-20T11:58:21;9.80;60.00
32139;DHT22;18644;48.700;9.210;2023-12-20T12:00:50;9.80;60.00
32139;DHT22;18644;48.700;9.210;2023-12-20T12:03:17;9.80;60.00
32139;DHT22;18644;48.700;9.210;2023-12-20T12:05:46;9.70;59.90
32139;DHT22;18644;48.700;9.210;2023-12-20T12:08:13;9.70;59.90
32139;DHT22;18644;48.700;9.210;2023-12-20T12:10:40;9.70;59.90
32139;DHT22;18644;48.700;9.210;2023-12-20T12:13:08;9.70;59.90
32139;DHT22;18644;48.700;9.210;2023-12-20T12:15:35;9.60;59.90
32139;DHT22;18644;48.700;9.210;2023-12-20T12:18:05;9.60;59.90
32139;DHT22;18644;48.700;9.210;2023-12-20T12:20:32;9.60;59.70
32139;DHT22;18644;48.700;9.210;2023-12-20T12:22:59;9.60;59.60
32139;DHT22;18644;48.700;9.210;2023-12-20T12:25:26;9.60;59.60
32139;DHT22;18644;48.700;9.210;2023-12-20T12:27:55;9.50;59.80
32139;DHT22;18644;48.700;9.210;2023-12-20T12:30:22;9.50;59.80
32139;DHT22;18644;48.700;9.210;2023-12-20T12:32:50;9.50;59.80
32139;DHT22;18644;48.700;9.210;2023-12-20T12:35:19;9.50;59.80
32139;DHT22;18644;48.700;9.210;2023-12-20T12:37:46;9.50;59.70
32139;DHT22;18644;48.700;9.210;2023-12-20T12:40:14;9.50;59.90
32139;DHT22;18644;48.700;9.210;2023-12-20T12:42:44;9.50;60.10
32139;DHT22;18644;48.700;9.210;2023-12-20T12:45:11;9.50;60.20
32139;DHT22;18644;48.700;9.210;2023-12-20T12:47:39;9.50;60.20
32139;DHT22;18644;48.700;9.210;2023-12-20T12:50:07;9.60;60.30
32139;DHT22;18644;48.700;9.210;2023-12-20T12:52:36;9.60;60.00
32139;DHT22;18644;48.700;9.210;2023-12-20T12:55:03;9.60;60.20
32139;DHT22;18644;48.700;9.210;2023-12-20T12:57:31;9.60;60.40
32139;DHT22;18644;48.700;9.210;2023-12-20T12:59:58;9.60;60.30
32139;DHT22;18644;48.700;9.210;2023-12-20T13:02:24;9.70;60.30
32139;DHT22;18644;48.700;9.210;2023-12-20T13:04:51;9.70;60.40
32139;DHT22;18644;48.700;9.210;2023-12-20T13:07:18;9.70;60.50
32139;DHT22;18644;48.700;9.210;2023-12-20T13:09:46;9.80;60.00
32139;DHT22;18644;48.700;9.210;2023-12-20T13:12:13;9.80;60.70
32139;DHT22;18644;48.700;9.210;2023-12-20T13:14:40;9.80;59.70
32139;DHT22;18644;48.700;9.210;2023-12-20T13:17:07;9.80;59.60
32139;DHT22;18644;48.700;9.210;2023-12-20T13:19:34;9.80;59.60
32139;DHT22;18644;48.700;9.210;2023-12-20T13:22:01;9.80;59.60
32139;DHT22;18644;48.700;9.210;2023-12-20T13:24:27;9.80;59.60
32139;DHT22;18644;48.700;9.210;2023-12-20T13:26:56;9.80;59.60
32139;DHT22;18644;48.700;9.210;2023-12-20T13:29:23;9.80;59.50
32139;DHT22;18644;48.700;9.210;2023-12-20T13:31:52;9.80;59.40
32139;DHT22;18644;48.700;9.210;2023-12-20T13:34:19;9.90;59.50
32139;DHT22;18644;48.700;9.210;2023-12-20T13:36:46;9.90;59.40
32139;DHT22;18644;48.700;9.210;2023-12-20T13:39:15;9.90;59.60
32139;DHT22;18644;48.700;9.210;2023-12-20T13:41:43;9.90;60.00
32139;DHT22;18644;48.700;9.210;2023-12-20T13:44:11;10.00;60.20
32139;DHT22;18644;48.700;9.210;2023-12-20T13:46:39;10.10;60.40
32139;DHT22;18644;48.700;9.210;2023-12-20T13:49:06;10.20;60.20
32139;DHT22;18644;48.700;9.210;2023-12-20T13:51:33;10.30;59.80
32139;DHT22;18644;48.700;9.210;2023-12-20T13:54:00;10.30;59.40
32139;DHT22;18644;48.700;9.210;2023-12-20T13:56:27;10.30;59.00
32139;DHT22;18644;48.700;9.210;2023-12-20T13:58:54;10.30;58.80
32139;DHT22;18644;48.700;9.210;2023-12-20T14:01:23;10.30;58.80
32139;DHT22;18644;48.700;9.210;2023-12-20T14:03:50;10.30;58.70
32139;DHT22;18644;48.700;9.210;2023-12-20T14:06:17;10.20;58.70
32139;DHT22;18644;48.700;9.210;2023-12-20T14:08:44;10.20;58.70
32139;DHT22;18644;48.700;9.210;2023-12-20T14:11:10;10.10;58.70
32139;DHT22;18644;48.700;9.210;2023-12-20T14:13:38;10.10;58.60
32139;DHT22;18644;48.700;9.210;2023-12-20T14:16:05;10.00;58.70
32139;DHT22;18644;48.700;9.210;2023-12-20T14:18:33;10.00;58.60
32139;DHT22;18644;48.700;9.210;2023-12-20T14:21:00;9.90;58.60
32139;DHT22;18644;48.700;9.210;2023-12-20T14:23:27;9.90;58.50
32139;DHT22;18644;48.700;9.210;2023-12-20T14:25:53;9.80;58.50
32139;DHT22;18644;48.700;9.210;2023-12-20T14:28:21;9.80;58.50
32139;DHT22;18644;48.700;9.210;2023-12-20T14:30:48;9.80;58.50
32139;DHT22;18644;48.700;9.210;2023-12-20T14:33:15;9.70;58.60
32139;DHT22;18644;48.700;9.210;2023-12-20T14:35:43;9.70;58.70
32139;DHT22;18644;48.700;9.210;2023-12-20T14:38:10;9.70;58.80
32139;DHT22;18644;48.700;9.210;2023-12-20T14:40:38;9.70;59.00
32139;DHT22;18644;48.700;9.210;2023-12-20T14:43:06;9.60;58.90
32139;DHT22;18644;48.700;9.210;2023-12-20T14:45:33;9.60;58.90
32139;DHT22;18644;48.700;9.210;2023-12-20T14:47:59;9.60;59.00
32139;DHT22;18644;48.700;9.210;2023-12-20T14:50:26;9.50;58.90
32139;DHT22;18644;48.700;9.210;2023-12-20T14:52:54;9.50;59.00
32139;DHT22;18644;48.700;9.210;2023-12-20T14:55:22;9.40;59.10
32139;DHT22;18644;48.700;9.210;2023-12-20T14:57:48;9.40;59.20
32139;DHT22;18644;48.700;9.210;2023-12-20T15:00:16;9.40;59.30
32139;DHT22;18644;48.700;9.210;2023-12-20T15:02:43;9.30;59.20
32139;DHT22;18644;48.700;9.210;2023-12-20T15:05:10;9.30;59.40
32139;DHT22;18644;48.700;9.210;2023-12-20T15:07:37;9.30;59.60
32139;DHT22;18644;48.700;9.210;2023-12-20T15:10:06;9.20;59.70
32139;DHT22;18644;48.700;9.210;2023-12-20T15:12:33;9.20;59.70
32139;DHT22;18644;48.700;9.210;2023-12-20T15:15:00;9.20;59.90
32139;DHT22;18644;48.700;9.210;2023-12-20T15:17:28;9.10;60.00
32139;DHT22;18644;48.700;9.210;2023-12-20T15:19:55;9.10;60.10
32139;DHT22;18644;48.700;9.210;2023-12-20T15:22:21;9.10;60.30
32139;DHT22;18644;48.700;9.210;2023-12-20T15:24:49;9.00;60.40
32139;DHT22;18644;48.700;9.210;2023-12-20T15:27:18;8.90;60.40
32139;DHT22;18644;48.700;9.210;2023-12-20T15:29:45;8.90;60.50
32139;DHT22;18644;48.700;9.210;2023-12-20T15:32:12;8.90;60.60
32139;DHT22;18644;48.700;9.210;2023-12-20T15:34:39;8.80;60.70
32139;DHT22;18644;48.700;9.210;2023-12-20T15:37:06;8.80;60.90
32139;DHT22;18644;48.700;9.210;2023-12-20T15:39:32;8.80;61.00
32139;DHT22;18644;48.700;9.210;2023-12-20T15:41:59;8.70;61.10
32139;DHT22;18644;48.700;9.210;2023-12-20T15:44:27;8.70;61.30
32139;DHT22;18644;48.700;9.210;2023-12-20T15:46:54;8.70;61.30
32139;DHT22;18644;48.700;9.210;2023-12-20T15:49:21;8.60;61.30
32139;DHT22;18644;48.700;9.210;2023-12-20T15:51:48;8.60;61.50